createdAt,value
2023-01-20T00:01:31.151Z,9.63
2023-01-20T00:03:59.107Z,8.40
2023-01-20T00:06:30.424Z,9.30
2023-01-20T00:09:01.696Z,9.43
2023-01-20T00:11:30.009Z,9.73
2023-01-20T00:14:02.485Z,11.83
2023-01-20T00:16:32.205Z,9.03
2023-01-20T00:18:59.743Z,9.53
2023-01-20T00:21:26.779Z,9.77
2023-01-20T00:23:53.798Z,9.03
2023-01-20T00:26:25.151Z,7.20
2023-01-20T00:28:55.946Z,6.87
2023-01-20T00:31:24.928Z,7.70
2023-01-20T00:33:54.907Z,11.07
2023-01-20T00:36:23.368Z,7.40
2023-01-20T00:38:51.170Z,8.27
2023-01-20T00:41:20.163Z,8.60
2023-01-20T00:43:47.113Z,7.93
2023-01-20T00:46:14.183Z,9.57
2023-01-20T00:48:41.534Z,10.17
2023-01-20T00:51:10.867Z,7.77
2023-01-20T00:53:38.170Z,8.53
2023-01-20T00:56:06.285Z,9.80
2023-01-20T00:58:33.322Z,9.47
2023-01-20T01:01:00.674Z,8.17
2023-01-20T01:03:28.826Z,9.43
2023-01-20T01:06:16.955Z,11.60
2023-01-20T01:08:59.942Z,10.00
2023-01-20T01:11:27.053Z,8.20
2023-01-20T01:13:57.188Z,9.97
2023-01-20T01:16:24.274Z,8.13
2023-01-20T01:18:55.164Z,8.97
2023-01-20T01:21:22.615Z,10.83
2023-01-20T01:23:49.538Z,7.60
2023-01-20T01:26:16.499Z,11.30
2023-01-20T01:28:44.177Z,9.30
2023-01-20T01:31:11.328Z,8.27
2023-01-20T01:33:38.870Z,8.33
2023-01-20T01:36:08.888Z,9.40
2023-01-20T01:38:36.246Z,7.00
2023-01-20T01:41:03.275Z,8.73
2023-01-20T01:43:37.290Z,10.83
2023-01-20T01:46:05.309Z,8.07
2023-01-20T01:48:44.814Z,7.97
2023-01-20T01:51:19.922Z,9.83
2023-01-20T01:54:06.259Z,9.23
2023-01-20T01:56:34.339Z,9.53
2023-01-20T01:59:03.821Z,8.63
2023-01-20T02:01:34.160Z,9.43
2023-01-20T02:04:13.036Z,8.70
2023-01-20T02:06:48.413Z,7.03
2023-01-20T02:09:15.891Z,8.40
2023-01-20T02:11:48.899Z,9.17
2023-01-20T02:14:26.579Z,9.13
2023-01-20T02:17:21.823Z,9.30
2023-01-20T02:20:19.606Z,8.87
2023-01-20T02:23:31.697Z,8.50
2023-01-20T02:26:07.502Z,9.20
2023-01-20T02:29:04.823Z,12.30
2023-01-20T02:32:29.386Z,7.83
2023-01-20T02:35:15.311Z,11.63
2023-01-20T02:38:45.010Z,8.20
2023-01-20T02:41:35.703Z,8.93
2023-01-20T02:44:17.529Z,8.27
2023-01-20T02:47:12.955Z,11.43
2023-01-20T02:50:12.217Z,10.60
2023-01-20T02:52:47.309Z,9.27
2023-01-20T02:55:28.480Z,11.33
2023-01-20T02:58:07.954Z,11.33
2023-01-20T03:00:44.264Z,10.83
2023-01-20T03:03:16.484Z,9.83
2023-01-20T03:05:58.518Z,10.87
2023-01-20T03:08:30.031Z,13.33
2023-01-20T03:11:03.868Z,13.50
2023-01-20T03:13:57.533Z,11.60
2023-01-20T03:16:26.962Z,11.80
2023-01-20T03:18:55.057Z,11.03
2023-01-20T03:21:22.931Z,14.20
2023-01-20T03:23:54.694Z,11.10
2023-01-20T03:26:24.014Z,13.97
2023-01-20T03:28:51.832Z,18.23
2023-01-20T03:31:30.408Z,22.90
2023-01-20T03:34:01.486Z,14.13
2023-01-20T03:36:30.422Z,12.13
2023-01-20T03:38:59.615Z,11.47
2023-01-20T03:42:09.701Z,12.40
2023-01-20T03:45:11.882Z,10.70
2023-01-20T03:48:22.493Z,12.57
2023-01-20T03:51:03.054Z,15.00
2023-01-20T03:53:52.744Z,12.30
2023-01-20T03:56:26.698Z,10.47
2023-01-20T03:58:58.203Z,13.53
2023-01-20T04:01:37.809Z,11.57
2023-01-20T04:04:10.758Z,11.47
2023-01-20T04:06:39.444Z,12.27
2023-01-20T04:09:12.821Z,11.20
2023-01-20T04:11:40.204Z,12.20
2023-01-20T04:14:09.779Z,12.67
2023-01-20T04:16:37.741Z,11.43
2023-01-20T04:19:04.718Z,13.00
2023-01-20T04:21:44.014Z,12.77
2023-01-20T04:24:21.913Z,14.23
2023-01-20T04:26:48.820Z,12.53
2023-01-20T04:29:15.809Z,19.10
2023-01-20T04:31:42.839Z,11.27
2023-01-20T04:34:15.769Z,12.57
2023-01-20T04:36:43.049Z,11.17
2023-01-20T04:39:10.474Z,10.80
2023-01-20T04:41:37.464Z,12.33
2023-01-20T04:44:04.504Z,14.40
2023-01-20T04:46:31.519Z,13.20
2023-01-20T04:48:58.570Z,12.13
2023-01-20T04:51:25.593Z,14.70
2023-01-20T04:53:58.336Z,11.80
2023-01-20T04:56:26.098Z,14.00
2023-01-20T04:58:53.249Z,13.27
2023-01-20T05:01:20.257Z,12.20
2023-01-20T05:03:47.376Z,15.63
2023-01-20T05:06:15.688Z,13.50
2023-01-20T05:08:42.580Z,11.80
2023-01-20T05:11:09.753Z,13.57
2023-01-20T05:13:39.557Z,16.10
2023-01-20T05:16:12.043Z,11.70
2023-01-20T05:18:39.165Z,11.60
2023-01-20T05:21:08.981Z,16.43
2023-01-20T05:23:36.534Z,19.37
2023-01-20T05:26:03.562Z,13.80
2023-01-20T05:28:30.589Z,14.03
2023-01-20T05:30:57.647Z,13.70
2023-01-20T05:33:24.834Z,15.90
2023-01-20T05:35:52.349Z,12.97
2023-01-20T05:38:20.033Z,12.20
2023-01-20T05:40:47.103Z,15.60
2023-01-20T05:43:14.144Z,18.23
2023-01-20T05:45:42.483Z,13.73
2023-01-20T05:48:09.639Z,17.13
2023-01-20T05:50:36.676Z,14.60
2023-01-20T05:53:03.645Z,14.97
2023-01-20T05:55:30.653Z,14.10
2023-01-20T05:57:57.596Z,13.80
2023-01-20T06:00:24.666Z,13.40
2023-01-20T06:02:51.867Z,15.70
2023-01-20T06:05:19.446Z,13.47
2023-01-20T06:07:46.530Z,14.20
2023-01-20T06:10:13.565Z,16.50
2023-01-20T06:12:40.673Z,19.30
2023-01-20T06:15:08.633Z,16.03
2023-01-20T06:17:35.996Z,14.77
2023-01-20T06:20:04.535Z,18.35
2023-01-20T06:22:31.563Z,19.93
2023-01-20T06:24:58.527Z,18.80
2023-01-20T06:27:25.517Z,16.40
2023-01-20T06:29:52.567Z,15.80
2023-01-20T06:32:19.594Z,19.57
2023-01-20T06:34:46.637Z,19.60
2023-01-20T06:37:13.795Z,15.90
2023-01-20T06:39:40.982Z,20.33
2023-01-20T06:42:08.287Z,17.23
2023-01-20T06:44:35.362Z,17.77
2023-01-20T06:47:03.134Z,18.97
2023-01-20T06:49:30.636Z,22.33
2023-01-20T06:51:57.700Z,18.40
2023-01-20T06:54:24.766Z,18.60
2023-01-20T06:56:51.782Z,18.27
2023-01-20T06:59:18.982Z,18.30
2023-01-20T07:01:46.026Z,24.53
2023-01-20T07:04:14.569Z,23.93
2023-01-20T07:06:42.549Z,19.50
2023-01-20T07:09:13.326Z,22.80
2023-01-20T07:11:40.844Z,27.40
2023-01-20T07:14:08.557Z,20.90
2023-01-20T07:16:36.382Z,21.10
2023-01-20T07:19:03.600Z,23.93
2023-01-20T07:21:30.667Z,26.67
2023-01-20T07:24:02.067Z,20.90
2023-01-20T07:26:29.256Z,23.00
2023-01-20T07:28:59.165Z,19.93
2023-01-20T07:31:29.320Z,22.90
2023-01-20T07:33:57.047Z,24.43
2023-01-20T07:36:24.939Z,28.70
2023-01-20T07:38:53.994Z,29.73
2023-01-20T07:41:22.133Z,21.00
2023-01-20T07:43:51.770Z,25.43
2023-01-20T07:46:20.391Z,25.53
2023-01-20T07:48:47.568Z,26.10
2023-01-20T07:51:16.610Z,22.47
2023-01-20T07:53:49.399Z,26.40
2023-01-20T07:56:18.968Z,22.40
2023-01-20T07:58:47.732Z,28.57
2023-01-20T08:01:29.881Z,29.40
2023-01-20T08:04:02.382Z,28.40
2023-01-20T08:06:30.339Z,25.70
2023-01-20T08:09:02.186Z,25.70
2023-01-20T08:11:32.327Z,32.40
2023-01-20T08:13:59.991Z,24.67
2023-01-20T08:16:27.022Z,30.07
2023-01-20T08:18:55.061Z,24.50
2023-01-20T08:21:28.863Z,32.07
2023-01-20T08:23:57.456Z,26.10
2023-01-20T08:26:27.491Z,25.33
2023-01-20T08:28:56.098Z,32.17
2023-01-20T08:31:25.333Z,30.17
2023-01-20T08:33:55.377Z,29.03
2023-01-20T08:36:28.193Z,26.50
2023-01-20T08:38:58.117Z,25.87
2023-01-20T08:41:33.676Z,29.53
2023-01-20T08:44:02.704Z,25.77
2023-01-20T08:46:29.696Z,29.10
2023-01-20T08:48:57.366Z,31.80
2023-01-20T08:51:31.194Z,28.47
2023-01-20T08:53:58.726Z,31.77
2023-01-20T08:56:26.466Z,29.07
2023-01-20T08:58:58.445Z,35.27
2023-01-20T09:01:29.606Z,32.87
2023-01-20T09:04:06.542Z,33.17
2023-01-20T09:06:50.655Z,30.50
2023-01-20T09:09:21.666Z,33.73
2023-01-20T09:11:52.141Z,30.13
2023-01-20T09:14:21.191Z,35.83
2023-01-20T09:16:49.125Z,35.53
2023-01-20T09:19:17.081Z,31.67
2023-01-20T09:21:44.692Z,34.23
2023-01-20T09:24:11.854Z,34.57
2023-01-20T09:26:38.932Z,38.70
2023-01-20T09:29:12.834Z,35.83
2023-01-20T09:31:46.621Z,35.10
2023-01-20T09:34:24.867Z,36.30
2023-01-20T09:37:22.009Z,33.13
2023-01-20T09:40:10.613Z,39.67
2023-01-20T09:43:13.000Z,32.97
2023-01-20T09:46:14.323Z,40.00
2023-01-20T09:49:31.691Z,35.30
2023-01-20T09:52:48.995Z,42.10
2023-01-20T09:55:41.262Z,39.50
2023-01-20T09:58:17.139Z,36.50
2023-01-20T10:00:50.803Z,38.97
2023-01-20T10:03:44.700Z,46.67
2023-01-20T10:06:35.385Z,39.90
2023-01-20T10:09:25.203Z,42.53
2023-01-20T10:12:21.867Z,37.27
2023-01-20T10:15:07.696Z,39.60
2023-01-20T10:17:59.473Z,43.03
2023-01-20T10:20:41.448Z,45.63
2023-01-20T10:23:21.693Z,37.77
2023-01-20T10:26:31.936Z,43.30
2023-01-20T10:29:04.334Z,39.53
2023-01-20T10:31:39.467Z,38.43
2023-01-20T10:34:14.229Z,38.80
2023-01-20T10:36:46.384Z,39.83
2023-01-20T10:39:55.066Z,39.20
2023-01-20T10:42:24.319Z,40.70
2023-01-20T10:44:52.816Z,41.63
2023-01-20T10:47:35.791Z,39.87
2023-01-20T10:51:10.938Z,36.97
2023-01-20T10:54:12.779Z,33.37
2023-01-20T10:56:53.696Z,35.93
2023-01-20T10:59:36.837Z,32.17
2023-01-20T11:02:23.259Z,36.50
2023-01-20T11:05:00.164Z,35.93
2023-01-20T11:07:30.278Z,40.97
2023-01-20T11:09:57.318Z,38.53
2023-01-20T11:12:30.074Z,35.73
2023-01-20T11:15:00.880Z,38.43
2023-01-20T11:17:27.853Z,36.80
2023-01-20T11:20:07.224Z,33.27
2023-01-20T11:22:38.083Z,36.53
2023-01-20T11:25:06.407Z,32.10
2023-01-20T11:27:46.243Z,36.17
2023-01-20T11:30:34.221Z,45.47
2023-01-20T11:33:24.922Z,36.60
2023-01-20T11:36:24.339Z,42.43
2023-01-20T11:38:52.825Z,33.00
2023-01-20T11:41:26.853Z,38.00
2023-01-20T11:43:59.958Z,31.07
2023-01-20T11:46:33.432Z,30.30
2023-01-20T11:49:24.778Z,32.10
2023-01-20T11:51:58.302Z,31.27
2023-01-20T11:54:30.672Z,30.87
2023-01-20T11:57:05.118Z,28.70
2023-01-20T11:59:47.865Z,31.30
2023-01-20T12:02:15.206Z,34.30
2023-01-20T12:05:02.743Z,33.10
2023-01-20T12:07:51.696Z,29.53
2023-01-20T12:10:30.931Z,30.97
2023-01-20T12:13:04.985Z,31.40
2023-01-20T12:15:42.520Z,32.90
2023-01-20T12:18:50.399Z,37.50
2023-01-20T12:21:36.019Z,33.97
2023-01-20T12:24:49.303Z,30.67
2023-01-20T12:27:25.692Z,34.90
2023-01-20T12:29:59.196Z,31.67
2023-01-20T12:32:26.271Z,34.93
2023-01-20T12:34:53.320Z,37.43
2023-01-20T12:37:40.221Z,32.73
2023-01-20T12:40:46.590Z,32.43
2023-01-20T12:43:16.674Z,30.93
2023-01-20T12:46:14.948Z,32.50
2023-01-20T12:49:20.280Z,30.97
2023-01-20T12:52:24.602Z,32.83
2023-01-20T12:55:18.220Z,35.23
2023-01-20T12:57:48.032Z,37.03
2023-01-20T13:00:48.147Z,38.00
2023-01-20T13:03:27.010Z,33.77
2023-01-20T13:06:30.355Z,39.97
2023-01-20T13:09:27.993Z,34.63
2023-01-20T13:12:26.461Z,39.30
2023-01-20T13:15:15.392Z,36.47
2023-01-20T13:18:15.595Z,30.93
2023-01-20T13:20:47.913Z,33.80
2023-01-20T13:23:22.000Z,37.37
2023-01-20T13:25:51.020Z,39.80
2023-01-20T13:28:22.600Z,42.23
2023-01-20T13:30:54.421Z,36.47
2023-01-20T13:33:41.139Z,41.30
2023-01-20T13:36:23.540Z,49.17
2023-01-20T13:39:30.113Z,37.70
2023-01-20T13:41:57.170Z,44.87
2023-01-20T13:44:35.694Z,37.33
2023-01-20T13:47:08.023Z,41.03
2023-01-20T13:49:52.290Z,39.63
2023-01-20T13:52:50.485Z,37.70
2023-01-20T13:55:45.632Z,30.33
2023-01-20T13:58:32.662Z,34.10
2023-01-20T14:01:10.481Z,35.67
2023-01-20T14:03:40.158Z,38.47
2023-01-20T14:06:20.919Z,34.47
2023-01-20T14:08:50.922Z,35.57
2023-01-20T14:11:21.753Z,35.37
2023-01-20T14:14:02.313Z,40.00
2023-01-20T14:16:35.003Z,36.10
2023-01-20T14:19:19.081Z,35.57
2023-01-20T14:21:53.793Z,33.97
2023-01-20T14:25:05.850Z,36.33
2023-01-20T14:27:38.209Z,35.47
2023-01-20T14:30:17.770Z,38.67
2023-01-20T14:32:46.027Z,31.67
2023-01-20T14:35:27.784Z,43.40
2023-01-20T14:37:55.887Z,31.53
2023-01-20T14:40:31.396Z,40.47
2023-01-20T14:43:19.757Z,39.57
2023-01-20T14:45:51.639Z,35.50
2023-01-20T14:48:33.359Z,38.90
2023-01-20T14:51:04.551Z,48.33
2023-01-20T14:53:32.011Z,49.93
2023-01-20T14:56:08.396Z,39.07
2023-01-20T14:58:36.593Z,38.57
2023-01-20T15:01:07.103Z,40.40
2023-01-20T15:03:34.523Z,37.77
2023-01-20T15:06:12.355Z,43.87
2023-01-20T15:08:41.065Z,40.60
2023-01-20T15:11:18.688Z,38.33
2023-01-20T15:14:11.143Z,39.50
2023-01-20T15:16:44.206Z,41.07
2023-01-20T15:19:14.007Z,41.07
2023-01-20T15:21:48.036Z,40.27
2023-01-20T15:24:32.649Z,45.30
2023-01-20T15:27:02.634Z,43.10
2023-01-20T15:29:36.697Z,38.07
2023-01-20T15:32:12.134Z,39.17
2023-01-20T15:34:39.600Z,36.70
2023-01-20T15:37:21.309Z,35.83
2023-01-20T15:39:48.234Z,39.10
2023-01-20T15:42:35.090Z,37.03
2023-01-20T15:45:02.067Z,36.10
2023-01-20T15:47:31.572Z,33.97
2023-01-20T15:49:59.128Z,41.63
2023-01-20T15:52:26.499Z,43.43
2023-01-20T15:54:53.467Z,41.60
2023-01-20T15:57:20.420Z,38.70
2023-01-20T15:59:49.882Z,44.70
2023-01-20T16:02:23.215Z,48.03
2023-01-20T16:04:50.734Z,42.93
2023-01-20T16:07:20.555Z,43.40
2023-01-20T16:09:47.885Z,41.50
2023-01-20T16:12:17.543Z,41.30
2023-01-20T16:14:45.631Z,44.00
2023-01-20T16:17:21.584Z,43.70
2023-01-20T16:19:49.787Z,45.60
2023-01-20T16:22:17.694Z,41.23
2023-01-20T16:24:44.735Z,42.20
2023-01-20T16:27:23.150Z,42.50
2023-01-20T16:29:50.899Z,42.30
2023-01-20T16:32:22.139Z,60.90
2023-01-20T16:34:49.931Z,45.00
2023-01-20T16:37:16.819Z,49.30
2023-01-20T16:39:43.785Z,42.57
2023-01-20T16:42:13.311Z,45.20
2023-01-20T16:44:40.335Z,46.77
2023-01-20T16:47:17.340Z,42.93
2023-01-20T16:49:44.346Z,40.20
2023-01-20T16:52:12.254Z,44.70
2023-01-20T16:54:39.224Z,44.27
2023-01-20T16:57:06.164Z,44.80
2023-01-20T16:59:33.245Z,50.33
2023-01-20T17:02:00.202Z,43.50
2023-01-20T17:04:27.295Z,44.03
2023-01-20T17:06:54.331Z,45.87
2023-01-20T17:09:21.345Z,45.90
2023-01-20T17:11:48.324Z,43.83
2023-01-20T17:14:16.035Z,48.80
2023-01-20T17:16:43.748Z,40.83
2023-01-20T17:19:11.382Z,39.17
2023-01-20T17:21:39.470Z,47.93
2023-01-20T17:24:07.851Z,46.80
2023-01-20T17:26:34.972Z,45.13
2023-01-20T17:29:04.758Z,46.20
2023-01-20T17:31:36.965Z,42.83
2023-01-20T17:34:05.714Z,49.50
2023-01-20T17:36:35.014Z,45.30
2023-01-20T17:39:06.578Z,45.03
2023-01-20T17:41:34.845Z,43.50
2023-01-20T17:44:01.995Z,47.30
2023-01-20T17:46:30.415Z,53.03
2023-01-20T17:48:59.896Z,43.53
2023-01-20T17:51:29.409Z,45.17
2023-01-20T17:53:58.522Z,39.50
2023-01-20T17:56:26.348Z,53.97
2023-01-20T17:58:54.474Z,50.90
2023-01-20T18:01:23.113Z,46.93
2023-01-20T18:03:53.081Z,50.33
2023-01-20T18:06:23.221Z,46.90
2023-01-20T18:08:56.671Z,51.30
2023-01-20T18:11:27.249Z,46.43
2023-01-20T18:13:56.976Z,45.43
2023-01-20T18:16:29.745Z,47.27
2023-01-20T18:18:59.096Z,43.83
2023-01-20T18:21:35.887Z,51.10
2023-01-20T18:24:05.396Z,48.20
2023-01-20T18:26:34.887Z,59.00
2023-01-20T18:29:05.644Z,50.60
2023-01-20T18:31:33.795Z,52.30
2023-01-20T18:34:04.731Z,49.00
2023-01-20T18:36:38.749Z,49.37
2023-01-20T18:39:18.969Z,47.13
2023-01-20T18:41:46.898Z,49.70
2023-01-20T18:44:13.930Z,41.60
2023-01-20T18:46:41.612Z,43.50
2023-01-20T18:49:09.974Z,46.73
2023-01-20T18:51:37.549Z,52.73
2023-01-20T18:54:13.351Z,34.63
2023-01-20T18:56:40.884Z,44.70
2023-01-20T18:59:07.868Z,39.97
2023-01-20T19:01:40.116Z,43.80
2023-01-20T19:04:10.819Z,41.00
2023-01-20T19:06:44.264Z,45.23
2023-01-20T19:09:12.912Z,49.33
2023-01-20T19:11:41.418Z,48.33
2023-01-20T19:14:13.055Z,44.57
2023-01-20T19:16:49.383Z,41.60
2023-01-20T19:19:20.176Z,40.77
2023-01-20T19:21:51.914Z,48.03
2023-01-20T19:24:21.566Z,43.00
2023-01-20T19:26:49.020Z,46.97
2023-01-20T19:29:17.708Z,44.57
2023-01-20T19:31:45.628Z,46.70
2023-01-20T19:34:13.151Z,48.13
2023-01-20T19:36:40.194Z,39.87
2023-01-20T19:39:08.643Z,43.37
2023-01-20T19:41:36.532Z,43.17
2023-01-20T19:44:06.891Z,44.20
2023-01-20T19:46:39.720Z,40.57
2023-01-20T19:49:08.217Z,35.90
2023-01-20T19:51:36.694Z,38.43
2023-01-20T19:54:07.019Z,39.50
2023-01-20T19:56:35.900Z,39.00
2023-01-20T19:59:06.185Z,39.57
2023-01-20T20:01:37.045Z,35.67
2023-01-20T20:04:08.526Z,39.37
2023-01-20T20:06:39.310Z,37.60
2023-01-20T20:09:26.219Z,36.40
2023-01-20T20:11:54.277Z,41.17
2023-01-20T20:14:23.966Z,37.67
2023-01-20T20:16:53.538Z,34.27
2023-01-20T20:19:23.253Z,41.50
2023-01-20T20:21:50.337Z,35.97
2023-01-20T20:24:19.204Z,36.50
2023-01-20T20:26:47.524Z,40.50
2023-01-20T20:29:18.950Z,32.83
2023-01-20T20:31:47.146Z,37.63
2023-01-20T20:34:18.615Z,40.40
2023-01-20T20:36:48.220Z,41.90
2023-01-20T20:39:18.394Z,38.10
2023-01-20T20:41:46.754Z,42.30
2023-01-20T20:44:13.853Z,42.43
2023-01-20T20:46:41.450Z,44.17
2023-01-20T20:49:14.552Z,40.77
2023-01-20T20:51:41.501Z,38.37
2023-01-20T20:54:12.316Z,45.57
2023-01-20T20:56:39.238Z,47.50
2023-01-20T20:59:06.166Z,43.30
2023-01-20T21:01:34.733Z,45.63
2023-01-20T21:04:05.934Z,38.40
2023-01-20T21:06:33.940Z,40.57
2023-01-20T21:09:00.970Z,43.63
2023-01-20T21:11:28.611Z,46.10
2023-01-20T21:13:55.753Z,48.77
2023-01-20T21:16:24.183Z,41.37
2023-01-20T21:18:55.453Z,43.93
2023-01-20T21:21:23.888Z,45.87
2023-01-20T21:23:57.571Z,41.33
2023-01-20T21:26:29.820Z,42.37
2023-01-20T21:28:57.695Z,48.53
2023-01-20T21:31:26.884Z,48.53
2023-01-20T21:33:58.524Z,44.60
2023-01-20T21:36:27.219Z,45.67
2023-01-20T21:38:54.684Z,60.70
2023-01-20T21:41:22.161Z,54.87
2023-01-20T21:44:07.668Z,54.30
2023-01-20T21:46:40.359Z,60.47
2023-01-20T21:49:29.359Z,63.10
2023-01-20T21:52:15.717Z,59.37
2023-01-20T21:54:45.135Z,69.90
2023-01-20T21:57:14.405Z,66.07
2023-01-20T21:59:41.785Z,65.00
2023-01-20T22:02:10.069Z,62.53
2023-01-20T22:04:37.061Z,56.20
2023-01-20T22:07:04.094Z,59.30
2023-01-20T22:09:31.107Z,64.20
2023-01-20T22:11:58.121Z,70.13
2023-01-20T22:14:25.316Z,64.90
2023-01-20T22:16:52.252Z,65.60
2023-01-20T22:19:19.230Z,54.67
2023-01-20T22:21:46.191Z,58.53
2023-01-20T22:24:13.367Z,55.77
2023-01-20T22:26:40.418Z,61.30
2023-01-20T22:29:07.451Z,58.50
2023-01-20T22:31:34.607Z,58.40
2023-01-20T22:34:05.298Z,63.23
2023-01-20T22:36:34.190Z,56.20
2023-01-20T22:39:02.778Z,61.87
2023-01-20T22:41:30.974Z,61.13
2023-01-20T22:43:58.101Z,55.77
2023-01-20T22:46:28.263Z,58.60
2023-01-20T22:48:59.747Z,59.90
2023-01-20T22:51:29.817Z,60.47
2023-01-20T22:53:59.864Z,64.13
2023-01-20T22:56:32.826Z,63.07
2023-01-20T22:59:00.747Z,67.13
2023-01-20T23:01:34.277Z,64.03
2023-01-20T23:04:05.359Z,62.97
2023-01-20T23:06:35.592Z,58.90
2023-01-20T23:09:12.992Z,61.43
2023-01-20T23:11:41.305Z,60.83
2023-01-20T23:14:13.075Z,59.57
2023-01-20T23:16:42.188Z,62.67
2023-01-20T23:19:10.236Z,67.50
2023-01-20T23:21:37.264Z,68.53
2023-01-20T23:24:04.434Z,61.00
2023-01-20T23:26:31.448Z,65.40
2023-01-20T23:28:58.560Z,65.40
2023-01-20T23:31:28.574Z,58.30
2023-01-20T23:33:55.607Z,59.87
2023-01-20T23:36:26.202Z,64.90
2023-01-20T23:38:55.607Z,64.27
2023-01-20T23:41:22.928Z,67.93
2023-01-20T23:43:49.883Z,61.30
2023-01-20T23:46:17.076Z,60.17
2023-01-20T23:48:47.003Z,64.57
2023-01-20T23:51:14.298Z,59.67
2023-01-20T23:53:42.235Z,58.70
2023-01-20T23:56:19.750Z,63.10
2023-01-20T23:58:47.782Z,57.50
